createdAt,value
2023-03-06T00:00:26.278Z,6.53
2023-03-06T00:02:53.826Z,5.90
2023-03-06T00:05:23.605Z,5.83
2023-03-06T00:07:50.497Z,8.77
2023-03-06T00:10:20.071Z,7.83
2023-03-06T00:12:46.919Z,7.30
2023-03-06T00:15:14.593Z,6.70
2023-03-06T00:17:41.427Z,7.00
2023-03-06T00:20:10.534Z,6.43
2023-03-06T00:22:37.653Z,6.70
2023-03-06T00:25:05.518Z,6.43
2023-03-06T00:27:32.959Z,6.80
2023-03-06T00:30:01.327Z,6.37
2023-03-06T00:32:28.529Z,6.30
2023-03-06T00:34:56.104Z,6.23
2023-03-06T00:37:24.693Z,6.27
2023-03-06T00:39:51.974Z,7.27
2023-03-06T00:42:19.831Z,6.70
2023-03-06T00:44:46.633Z,6.77
2023-03-06T00:47:13.831Z,5.63
2023-03-06T00:49:40.432Z,6.40
2023-03-06T00:52:07.056Z,6.83
2023-03-06T00:54:33.699Z,5.60
2023-03-06T00:57:00.345Z,6.40
2023-03-06T00:59:27.837Z,5.77
2023-03-06T01:01:55.097Z,6.93
2023-03-06T01:04:22.018Z,6.20
2023-03-06T01:06:49.133Z,7.70
2023-03-06T01:09:15.818Z,6.83
2023-03-06T01:11:42.417Z,8.53
2023-03-06T01:14:10.651Z,8.10
2023-03-06T01:16:37.336Z,6.83
2023-03-06T01:19:04.016Z,7.57
2023-03-06T01:21:30.890Z,5.97
2023-03-06T01:23:58.566Z,7.70
2023-03-06T01:26:25.212Z,6.97
2023-03-06T01:28:51.914Z,6.27
2023-03-06T01:31:18.532Z,8.03
2023-03-06T01:33:45.108Z,7.90
2023-03-06T01:36:13.169Z,6.23
2023-03-06T01:38:39.867Z,6.87
2023-03-06T01:41:06.989Z,6.90
2023-03-06T01:43:42.427Z,8.33
2023-03-06T01:46:34.149Z,8.63
2023-03-06T01:49:02.139Z,8.07
2023-03-06T01:51:35.868Z,8.47
2023-03-06T01:54:08.926Z,8.80
2023-03-06T01:56:36.446Z,8.00
2023-03-06T01:59:04.510Z,8.27
2023-03-06T02:01:32.605Z,8.60
2023-03-06T02:04:01.143Z,8.63
2023-03-06T02:06:29.210Z,7.80
2023-03-06T02:08:56.002Z,8.20
2023-03-06T02:11:25.124Z,7.70
2023-03-06T02:13:53.623Z,8.40
2023-03-06T02:16:25.265Z,7.13
2023-03-06T02:18:52.942Z,8.50
2023-03-06T02:21:27.037Z,7.73
2023-03-06T02:24:04.822Z,7.90
2023-03-06T02:26:34.140Z,6.73
2023-03-06T02:29:00.779Z,7.40
2023-03-06T02:31:30.813Z,7.83
2023-03-06T02:34:04.423Z,8.63
2023-03-06T02:36:33.575Z,10.67
2023-03-06T02:39:00.974Z,8.20
2023-03-06T02:41:27.680Z,10.00
2023-03-06T02:43:54.406Z,9.93
2023-03-06T02:46:21.129Z,11.60
2023-03-06T02:48:47.746Z,8.90
2023-03-06T02:51:14.439Z,9.33
2023-03-06T02:53:41.108Z,7.60
2023-03-06T02:56:08.261Z,8.23
2023-03-06T02:58:35.066Z,9.20
2023-03-06T03:01:01.846Z,9.10
2023-03-06T03:03:29.956Z,10.10
2023-03-06T03:05:57.715Z,8.80
2023-03-06T03:08:28.928Z,9.80
2023-03-06T03:11:00.336Z,9.07
2023-03-06T03:13:32.365Z,9.13
2023-03-06T03:16:08.107Z,8.90
2023-03-06T03:18:35.754Z,9.47
2023-03-06T03:21:07.906Z,8.30
2023-03-06T03:23:34.632Z,9.23
2023-03-06T03:26:15.454Z,8.70
2023-03-06T03:28:46.895Z,8.43
2023-03-06T03:31:18.991Z,8.40
2023-03-06T03:33:45.711Z,9.07
2023-03-06T03:36:12.968Z,9.63
2023-03-06T03:38:42.492Z,9.00
2023-03-06T03:41:10.163Z,9.03
2023-03-06T03:43:36.740Z,10.13
2023-03-06T03:46:03.885Z,8.43
2023-03-06T03:48:30.853Z,9.23
2023-03-06T03:51:08.688Z,9.67
2023-03-06T03:53:38.937Z,8.63
2023-03-06T03:56:06.580Z,9.23
2023-03-06T03:58:37.771Z,9.07
2023-03-06T04:01:05.176Z,8.63
2023-03-06T04:03:31.942Z,9.00
2023-03-06T04:05:58.993Z,9.07
2023-03-06T04:08:27.542Z,8.40
2023-03-06T04:10:54.884Z,9.53
2023-03-06T04:13:23.057Z,8.43
2023-03-06T04:15:52.491Z,8.83
2023-03-06T04:18:20.813Z,8.73
2023-03-06T04:20:49.029Z,9.27
2023-03-06T04:23:16.558Z,9.70
2023-03-06T04:25:44.625Z,7.87
2023-03-06T04:28:12.895Z,9.30
2023-03-06T04:30:39.615Z,8.73
2023-03-06T04:33:07.531Z,9.27
2023-03-06T04:35:34.749Z,9.13
2023-03-06T04:38:06.098Z,8.27
2023-03-06T04:40:34.653Z,9.33
2023-03-06T04:43:01.952Z,9.70
2023-03-06T04:45:30.161Z,8.03
2023-03-06T04:47:57.674Z,8.83
2023-03-06T04:50:25.420Z,9.03
2023-03-06T04:52:52.165Z,7.93
2023-03-06T04:55:19.621Z,9.87
2023-03-06T04:57:47.615Z,8.30
2023-03-06T05:00:18.232Z,10.77
2023-03-06T05:02:45.616Z,9.77
2023-03-06T05:05:13.238Z,8.40
2023-03-06T05:07:40.858Z,10.80
2023-03-06T05:10:10.393Z,10.43
2023-03-06T05:12:37.837Z,8.73
2023-03-06T05:15:05.638Z,9.20
2023-03-06T05:17:32.670Z,10.07
2023-03-06T05:19:59.344Z,8.47
2023-03-06T05:22:25.961Z,8.40
2023-03-06T05:24:52.762Z,9.90
2023-03-06T05:27:19.353Z,9.10
2023-03-06T05:29:46.030Z,10.20
2023-03-06T05:32:12.766Z,8.63
2023-03-06T05:34:40.126Z,8.90
2023-03-06T05:37:06.823Z,9.63
2023-03-06T05:39:33.586Z,9.80
2023-03-06T05:42:00.183Z,10.37
2023-03-06T05:44:34.868Z,8.20
2023-03-06T05:47:01.894Z,9.30
2023-03-06T05:49:33.501Z,10.20
2023-03-06T05:52:00.551Z,9.97
2023-03-06T05:54:27.204Z,13.53
2023-03-06T05:56:53.847Z,10.80
2023-03-06T05:59:20.446Z,9.60
2023-03-06T06:01:47.039Z,10.53
2023-03-06T06:04:13.617Z,11.13
2023-03-06T06:06:40.243Z,9.40
2023-03-06T06:09:06.803Z,9.63
2023-03-06T06:11:33.565Z,10.00
2023-03-06T06:14:00.230Z,10.87
2023-03-06T06:16:26.791Z,10.90
2023-03-06T06:18:53.366Z,11.13
2023-03-06T06:21:20.078Z,9.73
2023-03-06T06:23:46.662Z,9.80
2023-03-06T06:26:13.256Z,11.10
2023-03-06T06:28:40.032Z,10.50
2023-03-06T06:31:12.344Z,10.10
2023-03-06T06:33:40.732Z,10.10
2023-03-06T06:36:16.259Z,9.47
2023-03-06T06:38:43.379Z,9.30
2023-03-06T06:43:59.032Z,9.73
2023-03-06T06:47:17.895Z,9.70
2023-03-06T06:49:14.293Z,10.90
2023-03-06T06:51:41.588Z,9.90
2023-03-06T06:54:08.523Z,9.40
2023-03-06T06:56:35.244Z,10.27
2023-03-06T06:59:15.541Z,10.10
2023-03-06T07:01:43.799Z,10.20
2023-03-06T07:04:14.673Z,10.23
2023-03-06T07:06:42.593Z,11.97
2023-03-06T07:09:09.211Z,12.20
2023-03-06T07:11:37.287Z,11.27
2023-03-06T07:14:04.027Z,13.27
2023-03-06T07:16:30.637Z,11.80
2023-03-06T07:18:57.224Z,10.93
2023-03-06T07:21:23.898Z,10.93
2023-03-06T07:23:50.510Z,10.20
2023-03-06T07:26:17.114Z,10.80
2023-03-06T07:28:52.321Z,11.67
2023-03-06T07:31:25.498Z,10.47
2023-03-06T07:33:54.060Z,11.57
2023-03-06T07:36:22.432Z,10.33
2023-03-06T07:38:49.216Z,11.43
2023-03-06T07:41:16.539Z,13.60
2023-03-06T07:43:44.961Z,13.73
2023-03-06T07:46:14.224Z,14.37
2023-03-06T07:48:41.765Z,13.20
2023-03-06T07:51:13.674Z,13.30
2023-03-06T07:53:40.270Z,12.70
2023-03-06T07:56:09.013Z,13.40
2023-03-06T07:58:37.726Z,11.80
2023-03-06T08:01:06.364Z,13.43
2023-03-06T08:03:34.031Z,12.70
2023-03-06T08:06:11.802Z,11.27
2023-03-06T08:08:40.121Z,12.60
2023-03-06T08:11:08.105Z,12.30
2023-03-06T08:13:35.786Z,15.20
2023-03-06T08:16:03.475Z,13.70
2023-03-06T08:18:30.132Z,14.20
2023-03-06T08:21:05.688Z,16.73
2023-03-06T08:23:33.817Z,15.70
2023-03-06T08:26:03.623Z,15.40
2023-03-06T08:28:30.455Z,19.77
2023-03-06T08:30:57.906Z,28.43
2023-03-06T08:33:25.283Z,30.67
2023-03-06T08:35:52.801Z,42.40
2023-03-06T08:38:19.506Z,19.27
2023-03-06T08:40:46.166Z,19.40
2023-03-06T08:43:14.145Z,33.03
2023-03-06T08:45:41.243Z,17.10
2023-03-06T08:48:07.991Z,16.00
2023-03-06T08:50:34.603Z,12.63
2023-03-06T08:53:01.260Z,14.53
2023-03-06T08:55:28.266Z,14.90
2023-03-06T08:57:54.973Z,15.73
2023-03-06T09:00:21.806Z,12.43
2023-03-06T09:02:48.426Z,14.80
2023-03-06T09:05:15.131Z,12.63
2023-03-06T09:07:41.718Z,12.73
2023-03-06T09:10:13.117Z,13.63
2023-03-06T09:12:49.905Z,12.10
2023-03-06T09:15:20.415Z,14.87
2023-03-06T09:17:50.776Z,11.47
2023-03-06T09:20:18.187Z,11.27
2023-03-06T09:22:45.724Z,11.90
2023-03-06T09:25:13.753Z,11.77
2023-03-06T09:27:40.809Z,11.33
2023-03-06T09:30:08.390Z,12.00
2023-03-06T09:32:35.078Z,13.87
2023-03-06T09:35:01.674Z,12.00
2023-03-06T09:37:28.394Z,9.20
2023-03-06T09:39:55.046Z,10.63
2023-03-06T09:42:23.723Z,12.73
2023-03-06T09:44:54.459Z,11.70
2023-03-06T09:47:47.425Z,10.93
2023-03-06T09:50:46.384Z,12.40
2023-03-06T09:53:32.708Z,11.50
2023-03-06T09:56:15.350Z,8.93
2023-03-06T09:59:31.398Z,9.90
2023-03-06T10:02:19.158Z,11.00
2023-03-06T10:04:55.846Z,8.20
2023-03-06T10:07:27.338Z,10.17
2023-03-06T10:09:58.253Z,10.07
2023-03-06T10:12:30.837Z,8.87
2023-03-06T10:15:03.625Z,9.97
2023-03-06T10:17:40.178Z,9.70
2023-03-06T10:20:25.249Z,6.10
2023-03-06T10:23:01.319Z,7.30
2023-03-06T10:25:46.471Z,10.37
2023-03-06T10:28:17.490Z,9.73
2023-03-06T10:31:05.706Z,9.30
2023-03-06T10:33:47.492Z,11.80
2023-03-06T10:36:19.020Z,9.80
2023-03-06T10:38:48.599Z,9.27
2023-03-06T10:41:18.340Z,9.47
2023-03-06T10:44:06.595Z,8.20
2023-03-06T10:46:36.403Z,9.30
2023-03-06T10:49:06.417Z,8.10
2023-03-06T10:51:34.217Z,6.60
2023-03-06T10:54:03.937Z,6.83
2023-03-06T10:56:41.322Z,8.93
2023-03-06T10:59:09.250Z,7.10
2023-03-06T11:01:36.408Z,8.20
2023-03-06T11:04:21.804Z,9.03
2023-03-06T11:07:03.833Z,9.30
2023-03-06T11:09:30.445Z,8.67
2023-03-06T11:12:20.396Z,9.80
2023-03-06T11:14:47.161Z,10.07
2023-03-06T11:17:32.082Z,8.40
2023-03-06T11:20:17.172Z,10.00
2023-03-06T11:22:51.199Z,8.80
2023-03-06T11:25:20.547Z,8.90
2023-03-06T11:27:55.969Z,9.17
2023-03-06T11:30:30.340Z,9.10
2023-03-06T11:33:01.896Z,8.70
2023-03-06T11:35:43.835Z,9.00
2023-03-06T11:38:47.461Z,12.47
2023-03-06T11:41:24.190Z,13.43
2023-03-06T11:44:26.244Z,13.07
2023-03-06T11:47:05.717Z,12.13
2023-03-06T11:49:39.490Z,18.27
2023-03-06T11:52:15.695Z,13.10
2023-03-06T11:54:42.366Z,9.40
2023-03-06T11:57:22.294Z,9.60
2023-03-06T12:00:17.041Z,10.97
2023-03-06T12:03:02.574Z,10.47
2023-03-06T12:06:08.470Z,9.97
2023-03-06T12:08:51.118Z,12.87
2023-03-06T12:11:23.315Z,8.17
2023-03-06T12:14:05.403Z,11.87
2023-03-06T12:16:43.280Z,11.17
2023-03-06T12:19:36.274Z,7.27
2023-03-06T12:22:14.393Z,8.70
2023-03-06T12:25:02.374Z,8.53
2023-03-06T12:27:36.890Z,8.37
2023-03-06T12:30:18.760Z,8.90
2023-03-06T12:33:14.721Z,8.57
2023-03-06T12:35:53.215Z,8.60
2023-03-06T12:38:41.689Z,9.93
2023-03-06T12:41:22.323Z,10.50
2023-03-06T12:44:06.598Z,9.47
2023-03-06T12:46:43.434Z,9.67
2023-03-06T12:49:33.180Z,9.07
2023-03-06T12:52:01.380Z,9.23
2023-03-06T12:54:33.779Z,12.00
2023-03-06T12:57:01.089Z,9.03
2023-03-06T12:59:34.656Z,10.30
2023-03-06T13:02:25.586Z,10.87
2023-03-06T13:05:31.402Z,8.90
2023-03-06T13:08:12.879Z,8.43
2023-03-06T13:10:42.205Z,8.90
2023-03-06T13:13:41.529Z,8.77
2023-03-06T13:16:14.198Z,8.80
2023-03-06T13:18:40.814Z,7.47
2023-03-06T13:21:42.109Z,7.80
2023-03-06T13:24:19.708Z,7.30
2023-03-06T13:26:46.256Z,7.43
2023-03-06T13:29:37.917Z,6.80
2023-03-06T13:32:06.782Z,8.10
2023-03-06T13:34:41.277Z,6.47
2023-03-06T13:37:14.132Z,8.63
2023-03-06T13:39:55.938Z,5.77
2023-03-06T13:42:31.830Z,5.63
2023-03-06T13:45:06.249Z,6.80
2023-03-06T13:48:06.532Z,5.80
2023-03-06T13:50:47.408Z,7.50
2023-03-06T13:53:26.174Z,6.97
2023-03-06T13:56:01.643Z,8.40
2023-03-06T13:58:54.031Z,7.93
2023-03-06T14:01:40.967Z,5.40
2023-03-06T14:04:30.630Z,5.40
2023-03-06T14:07:20.861Z,7.27
2023-03-06T14:09:57.827Z,8.03
2023-03-06T14:12:30.299Z,7.00
2023-03-06T14:15:01.367Z,7.63
2023-03-06T14:17:39.088Z,7.00
2023-03-06T14:20:17.957Z,6.73
2023-03-06T14:22:44.685Z,6.30
2023-03-06T14:25:20.552Z,5.40
2023-03-06T14:27:49.976Z,6.50
2023-03-06T14:30:24.216Z,7.97
2023-03-06T14:32:53.967Z,7.63
2023-03-06T14:35:30.452Z,6.50
2023-03-06T14:38:00.510Z,7.13
2023-03-06T14:40:34.938Z,6.50
2023-03-06T14:43:22.944Z,9.07
2023-03-06T14:45:50.808Z,7.70
2023-03-06T14:48:18.140Z,8.37
2023-03-06T14:50:50.780Z,8.87
2023-03-06T14:53:22.275Z,8.67
2023-03-06T14:55:58.950Z,7.97
2023-03-06T14:58:38.581Z,9.87
2023-03-06T15:01:08.426Z,8.37
2023-03-06T15:03:50.628Z,8.37
2023-03-06T15:06:19.776Z,8.37
2023-03-06T15:08:50.112Z,9.90
2023-03-06T15:11:16.766Z,8.30
2023-03-06T15:13:59.489Z,8.17
2023-03-06T15:16:30.147Z,7.57
2023-03-06T15:19:04.513Z,7.80
2023-03-06T15:21:36.537Z,9.20
2023-03-06T15:24:28.915Z,8.90
2023-03-06T15:26:59.093Z,9.27
2023-03-06T15:29:27.496Z,8.43
2023-03-06T15:32:27.542Z,9.90
2023-03-06T15:35:38.356Z,9.10
2023-03-06T15:38:24.208Z,9.00
2023-03-06T15:40:57.219Z,8.40
2023-03-06T15:43:24.155Z,9.30
2023-03-06T15:45:56.254Z,10.40
2023-03-06T15:48:22.893Z,9.17
2023-03-06T15:50:49.545Z,9.60
2023-03-06T15:53:16.190Z,9.73
2023-03-06T15:55:43.255Z,10.43
2023-03-06T15:58:13.445Z,12.83
2023-03-06T16:00:40.873Z,10.23
2023-03-06T16:03:10.422Z,8.53
2023-03-06T16:05:37.096Z,8.53
2023-03-06T16:08:05.228Z,10.30
2023-03-06T16:10:35.381Z,11.07
2023-03-06T16:13:12.842Z,10.90
2023-03-06T16:15:44.869Z,9.83
2023-03-06T16:18:12.898Z,11.40
2023-03-06T16:20:41.567Z,10.67
2023-03-06T16:23:10.594Z,12.90
2023-03-06T16:25:43.011Z,20.63
2023-03-06T16:28:14.191Z,19.30
2023-03-06T16:30:42.393Z,20.00
2023-03-06T16:33:13.019Z,21.03
2023-03-06T16:35:41.144Z,12.73
2023-03-06T16:38:07.842Z,11.50
2023-03-06T16:40:40.910Z,11.67
2023-03-06T16:43:10.781Z,10.40
2023-03-06T16:45:39.654Z,11.27
2023-03-06T16:48:07.106Z,11.70
2023-03-06T16:50:38.255Z,12.47
2023-03-06T16:53:06.146Z,11.67
2023-03-06T16:55:33.356Z,12.87
2023-03-06T16:58:00.183Z,12.75
2023-03-06T17:00:31.087Z,12.80
2023-03-06T17:02:58.057Z,12.50
2023-03-06T17:05:25.408Z,10.37
2023-03-06T17:07:52.152Z,12.60
2023-03-06T17:10:22.630Z,12.07
2023-03-06T17:12:50.059Z,9.90
2023-03-06T17:15:16.721Z,11.43
2023-03-06T17:17:43.635Z,12.60
2023-03-06T17:20:11.991Z,11.33
2023-03-06T17:22:38.832Z,11.63
2023-03-06T17:25:06.942Z,13.27
2023-03-06T17:27:34.631Z,15.17
2023-03-06T17:30:01.424Z,11.90
2023-03-06T17:32:28.570Z,12.70
2023-03-06T17:34:55.292Z,23.10
2023-03-06T17:37:22.004Z,14.30
2023-03-06T17:39:48.703Z,14.97
2023-03-06T17:42:15.708Z,12.57
2023-03-06T17:44:42.341Z,11.63
2023-03-06T17:47:08.938Z,12.53
2023-03-06T17:49:35.587Z,11.67
2023-03-06T17:52:04.399Z,10.63
2023-03-06T17:54:31.083Z,11.73
2023-03-06T17:57:01.005Z,11.17
2023-03-06T17:59:28.620Z,11.13
2023-03-06T18:01:59.176Z,11.63
2023-03-06T18:04:26.837Z,11.80
2023-03-06T18:06:53.597Z,12.70
2023-03-06T18:09:20.469Z,13.13
2023-03-06T18:11:47.224Z,11.80
2023-03-06T18:14:14.094Z,14.77
2023-03-06T18:16:41.330Z,23.53
2023-03-06T18:19:10.877Z,15.33
2023-03-06T18:21:39.578Z,14.30
2023-03-06T18:24:06.709Z,11.87
2023-03-06T18:26:33.498Z,12.13
2023-03-06T18:29:03.661Z,11.77
2023-03-06T18:31:36.625Z,13.40
2023-03-06T18:34:06.585Z,12.70
2023-03-06T18:36:34.938Z,11.00
2023-03-06T18:39:03.826Z,12.83
2023-03-06T18:41:31.121Z,12.40
2023-03-06T18:44:00.121Z,13.40
2023-03-06T18:46:31.546Z,12.20
2023-03-06T18:48:58.742Z,12.53
2023-03-06T18:51:25.663Z,12.43
2023-03-06T18:53:52.590Z,12.07
2023-03-06T18:56:24.473Z,13.23
2023-03-06T18:58:51.360Z,12.17
2023-03-06T19:01:18.590Z,12.90
2023-03-06T19:03:45.424Z,12.07
2023-03-06T19:06:14.684Z,12.50
2023-03-06T19:08:41.378Z,12.60
2023-03-06T19:11:11.379Z,12.00
2023-03-06T19:13:38.384Z,12.43
2023-03-06T19:16:06.037Z,12.70
2023-03-06T19:18:32.657Z,13.33
2023-03-06T19:21:11.000Z,12.30
2023-03-06T19:23:38.059Z,13.77
2023-03-06T19:26:05.235Z,14.20
2023-03-06T19:28:32.630Z,12.40
2023-03-06T19:30:59.764Z,12.33
2023-03-06T19:33:26.420Z,13.73
2023-03-06T19:35:53.160Z,14.13
2023-03-06T19:38:19.891Z,13.00
2023-03-06T19:40:50.116Z,13.10
2023-03-06T19:43:16.945Z,14.20
2023-03-06T19:45:44.448Z,15.70
2023-03-06T19:48:13.560Z,13.57
2023-03-06T19:50:41.080Z,13.07
2023-03-06T19:53:08.597Z,14.17
2023-03-06T19:55:35.244Z,13.83
2023-03-06T19:58:02.122Z,12.70
2023-03-06T20:00:28.889Z,14.63
2023-03-06T20:02:56.039Z,12.60
2023-03-06T20:05:23.130Z,15.23
2023-03-06T20:07:50.889Z,16.10
2023-03-06T20:10:17.863Z,14.87
2023-03-06T20:12:44.549Z,16.77
2023-03-06T20:15:11.738Z,15.30
2023-03-06T20:17:40.462Z,14.23
2023-03-06T20:20:09.174Z,13.83
2023-03-06T20:22:39.003Z,15.10
2023-03-06T20:25:06.089Z,17.00
2023-03-06T20:27:33.732Z,15.03
2023-03-06T20:30:00.503Z,13.83
2023-03-06T20:32:27.298Z,13.50
2023-03-06T20:34:54.161Z,14.27
2023-03-06T20:37:23.456Z,14.67
2023-03-06T20:39:51.538Z,15.50
2023-03-06T20:42:18.182Z,13.90
2023-03-06T20:44:44.824Z,13.90
2023-03-06T20:47:11.406Z,14.60
2023-03-06T20:49:38.688Z,15.53
2023-03-06T20:52:05.446Z,16.40
2023-03-06T20:54:32.176Z,16.97
2023-03-06T20:56:59.154Z,18.03
2023-03-06T20:59:25.745Z,16.50
2023-03-06T21:01:52.454Z,17.43
2023-03-06T21:04:19.209Z,17.17
2023-03-06T21:06:47.131Z,13.47
2023-03-06T21:09:16.214Z,14.97
2023-03-06T21:11:42.926Z,12.60
2023-03-06T21:14:09.768Z,14.50
2023-03-06T21:16:36.847Z,15.30
2023-03-06T21:19:03.797Z,16.10
2023-03-06T21:21:33.079Z,15.70
2023-03-06T21:24:00.479Z,13.17
2023-03-06T21:26:29.698Z,14.40
2023-03-06T21:29:00.758Z,14.73
2023-03-06T21:31:28.460Z,11.93
2023-03-06T21:33:56.262Z,13.97
2023-03-06T21:36:23.518Z,13.67
2023-03-06T21:38:51.971Z,15.13
2023-03-06T21:41:20.044Z,15.10
2023-03-06T21:43:48.726Z,13.07
2023-03-06T21:46:18.341Z,13.73
2023-03-06T21:48:45.375Z,13.17
2023-03-06T21:51:15.895Z,13.67
2023-03-06T21:53:44.072Z,15.33
2023-03-06T21:56:12.093Z,15.77
2023-03-06T21:58:41.767Z,14.43
2023-03-06T22:01:10.797Z,15.07
2023-03-06T22:03:37.994Z,15.40
2023-03-06T22:06:13.618Z,14.27
2023-03-06T22:08:44.077Z,13.73
2023-03-06T22:11:17.069Z,13.53
2023-03-06T22:13:44.624Z,14.40
2023-03-06T22:16:12.403Z,14.83
2023-03-06T22:18:39.155Z,14.10
2023-03-06T22:21:10.127Z,16.23
2023-03-06T22:23:37.256Z,12.73
2023-03-06T22:26:12.787Z,13.00
2023-03-06T22:28:40.271Z,16.13
2023-03-06T22:31:08.363Z,13.80
2023-03-06T22:33:35.220Z,14.47
2023-03-06T22:36:06.172Z,14.80
2023-03-06T22:38:37.526Z,13.40
2023-03-06T22:41:05.318Z,13.50
2023-03-06T22:43:32.953Z,14.40
2023-03-06T22:46:04.766Z,13.10
2023-03-06T22:48:32.417Z,14.87
2023-03-06T22:51:09.419Z,13.57
2023-03-06T22:53:36.870Z,13.53
2023-03-06T22:56:05.480Z,13.67
2023-03-06T22:58:37.337Z,14.17
2023-03-06T23:01:10.139Z,14.27
2023-03-06T23:03:38.871Z,13.70
2023-03-06T23:06:14.618Z,14.70
2023-03-06T23:08:45.072Z,12.90
2023-03-06T23:11:14.185Z,12.17
2023-03-06T23:13:59.654Z,12.97
2023-03-06T23:16:45.127Z,14.33
2023-03-06T23:19:30.964Z,12.50
2023-03-06T23:22:16.192Z,13.63
2023-03-06T23:25:01.502Z,12.50
2023-03-06T23:27:29.371Z,11.53
2023-03-06T23:29:58.843Z,12.60
2023-03-06T23:32:25.551Z,13.73
2023-03-06T23:34:52.252Z,11.40
2023-03-06T23:37:18.857Z,13.33
2023-03-06T23:39:46.314Z,14.00
2023-03-06T23:42:12.906Z,13.30
2023-03-06T23:44:39.536Z,13.80
2023-03-06T23:47:06.173Z,11.47
2023-03-06T23:49:33.799Z,13.50
2023-03-06T23:52:00.437Z,12.83
2023-03-06T23:54:27.064Z,12.17
2023-03-06T23:56:53.668Z,12.10
2023-03-06T23:59:20.295Z,10.13
